Time;durP1;ratioP1;P1;durP2;ratioP2;P2;SDS_P1;SDS_P2;PMS_P1;PMS_P2;Temp;Humidity;BMP_temperature;BMP_pressure;BME280_temperature;BME280_humidity;BME280_pressure;Samples;Min_cycle;Max_cycle;Signal;HPM_P1;HPM_P2
2023/08/08 00:01:23;;;;;;;;;3.00;3.00;;;;;20.58;51.08;101448.63;5037616;28;45521;-72
2023/08/08 00:03:49;;;;;;;;;5.00;3.33;;;;;19.80;50.76;101313.31;5036045;28;46252;-71
2023/08/08 00:06:15;;;;;;;;;3.00;3.00;;;;;20.50;51.59;101443.47;5038381;28;45525;-70
2023/08/08 00:08:41;;;;;;;;;4.00;4.00;;;;;20.48;51.57;101447.09;5037809;28;45465;-71
2023/08/08 00:11:07;;;;;;;;;3.00;2.67;;;;;19.99;51.63;101355.34;5037284;28;45622;-71
2023/08/08 00:13:32;;;;;;;;;3.00;3.00;;;;;20.45;51.59;101440.06;5035173;28;45958;-71
2023/08/08 00:15:58;;;;;;;;;2.67;2.67;;;;;19.86;51.78;101341.50;5051923;28;45541;-69
2023/08/08 00:18:24;;;;;;;;;4.00;4.00;;;;;20.09;51.85;101384.28;5037974;28;45373;-70
2023/08/08 00:20:49;;;;;;;;;2.00;2.00;;;;;20.49;51.45;101441.72;5038115;28;45505;-71
2023/08/08 00:23:15;;;;;;;;;4.00;3.67;;;;;20.07;51.32;101363.97;5036499;28;45359;-71
2023/08/08 00:25:41;;;;;;;;;8.67;3.00;;;;;20.43;51.49;101427.72;5038142;28;45648;-71
2023/08/08 00:28:06;;;;;;;;;4.00;2.67;;;;;20.07;51.92;101391.47;5035875;28;45398;-71
2023/08/08 00:30:32;;;;;;;;;4.00;4.00;;;;;20.14;52.02;101410.75;5037395;28;45417;-70
2023/08/08 00:32:58;;;;;;;;;3.33;2.67;;;;;20.30;52.23;101427.19;5037823;28;45441;-70
2023/08/08 00:35:24;;;;;;;;;4.00;4.00;;;;;20.10;52.53;101403.81;5036817;28;45511;-71
2023/08/08 00:37:49;;;;;;;;;3.33;2.67;;;;;19.74;52.62;101368.41;5036970;28;45451;-71
2023/08/08 00:40:15;;;;;;;;;2.00;2.00;;;;;19.83;53.05;101368.19;5053396;28;45605;-71
2023/08/08 00:42:41;;;;;;;;;5.00;3.33;;;;;20.06;53.28;101418.09;5038022;28;45668;-72
2023/08/08 00:45:07;;;;;;;;;6.00;3.33;;;;;20.04;53.22;101419.91;5037397;28;45377;-71
2023/08/08 00:47:34;;;;;;;;;2.00;2.00;;;;;19.85;53.67;101408.88;5037909;28;45401;-71
2023/08/08 00:50:02;;;;;;;;;3.67;2.00;;;;;19.67;53.81;101371.22;5038954;28;45586;-71
2023/08/08 00:52:29;;;;;;;;;3.00;3.00;;;;;19.95;53.47;101404.19;5036659;28;45367;-71
2023/08/08 00:54:54;;;;;;;;;2.00;2.00;;;;;19.84;53.76;101388.53;5038391;28;45433;-71
2023/08/08 00:57:20;;;;;;;;;4.00;2.33;;;;;19.63;53.70;101348.28;5037827;28;45365;-72
2023/08/08 00:59:46;;;;;;;;;4.00;4.00;;;;;19.94;53.22;101395.34;5037003;28;45501;-72
2023/08/08 01:02:12;;;;;;;;;3.00;3.00;;;;;19.99;53.18;101389.91;5037428;28;45526;-72
2023/08/08 01:04:39;;;;;;;;;3.67;3.00;;;;;20.02;53.16;101389.81;5036034;28;46475;-71
2023/08/08 01:07:22;;;;;;;;;6.00;5.00;;;;;19.98;53.49;101391.72;5037860;28;45485;-71
2023/08/08 01:10:07;;;;;;;;;2.67;2.00;;;;;20.04;53.37;101396.84;5036832;28;45366;-72
2023/08/08 01:12:40;;;;;;;;;3.00;2.67;;;;;19.19;53.24;101251.13;5037384;28;45560;-71
2023/08/08 01:15:07;;;;;;;;;5.00;3.00;;;;;19.98;53.92;101389.06;5031666;28;45525;-71
2023/08/08 01:17:35;;;;;;;;;3.00;3.00;;;;;19.84;53.44;101370.81;5050336;28;45481;-71
2023/08/08 01:20:04;;;;;;;;;5.00;4.00;;;;;19.96;54.23;101392.66;5037793;28;45315;-71
2023/08/08 01:22:36;;;;;;;;;3.67;3.67;;;;;19.81;54.54;101377.97;5036913;28;45929;-71
2023/08/08 01:25:06;;;;;;;;;2.67;2.67;;;;;19.90;54.32;101396.34;5036863;28;45500;-70
2023/08/08 01:27:31;;;;;;;;;3.00;3.00;;;;;19.86;53.89;101403.53;5036964;28;45571;-72
2023/08/08 01:29:57;;;;;;;;;4.00;4.00;;;;;19.77;54.36;101384.31;5037599;28;45500;-72
2023/08/08 01:32:23;;;;;;;;;3.00;3.00;;;;;19.69;53.87;101376.50;5037545;28;45544;-72
2023/08/08 01:34:48;;;;;;;;;4.00;3.67;;;;;19.93;53.89;101398.91;5037375;28;45478;-71
2023/08/08 01:37:22;;;;;;;;;6.00;3.00;;;;;19.69;54.54;101372.09;5038233;28;45434;-71
2023/08/08 01:40:02;;;;;;;;;;;;;;;;;;;;;
2023/08/08 01:42:29;;;;;;;;;4.00;3.00;;;;;19.95;54.13;101402.41;5037275;28;63774;-71
2023/08/08 01:45:02;;;;;;;;;4.00;4.00;;;;;19.80;54.56;101398.38;5037238;28;46500;-73
2023/08/08 01:47:32;;;;;;;;;2.33;2.33;;;;;19.84;54.40;101408.03;5037759;28;45845;-72
2023/08/08 01:49:57;;;;;;;;;2.33;2.33;;;;;19.76;54.57;101393.16;5036783;28;45530;-71
2023/08/08 01:52:23;;;;;;;;;3.00;3.00;;;;;19.80;54.17;101409.00;5039145;28;45278;-71
2023/08/08 01:54:49;;;;;;;;;4.33;4.00;;;;;19.74;54.33;101395.00;5035422;28;46847;-71
2023/08/08 01:57:14;;;;;;;;;6.00;4.00;;;;;19.64;54.34;101384.56;5037075;28;45302;-71
2023/08/08 01:59:40;;;;;;;;;3.00;3.00;;;;;19.81;54.13;101405.44;5037071;28;45469;-71
2023/08/08 02:02:06;;;;;;;;;3.00;3.00;;;;;19.65;54.51;101385.47;5036940;28;45533;-71
2023/08/08 02:04:32;;;;;;;;;3.33;2.00;;;;;19.20;53.95;101295.38;5036381;28;46583;-71
2023/08/08 02:06:57;;;;;;;;;5.00;5.00;;;;;19.82;54.76;101396.56;5036821;28;45371;-71
2023/08/08 02:09:23;;;;;;;;;4.00;3.33;;;;;18.97;54.95;101270.25;5035483;28;45318;-72
2023/08/08 02:11:48;;;;;;;;;3.00;3.00;;;;;19.46;54.52;101359.34;5035968;28;45558;-71
2023/08/08 02:14:17;;;;;;;;;2.00;2.00;;;;;19.75;54.50;101392.31;5037230;28;46269;-71
2023/08/08 02:16:43;;;;;;;;;2.67;2.67;;;;;19.73;54.56;101380.84;5031597;28;45577;-72
2023/08/08 02:19:43;;;;;;;;;5.33;2.00;;;;;19.70;54.46;101380.94;5036254;28;45458;-71
2023/08/08 02:22:09;;;;;;;;;2.67;2.33;;;;;19.53;54.13;101345.88;5036891;28;45570;-72
2023/08/08 02:24:35;;;;;;;;;4.00;2.00;;;;;19.12;54.52;101278.75;5034279;28;46639;-71
2023/08/08 02:27:00;;;;;;;;;4.00;2.00;;;;;19.69;54.76;101382.72;5035330;28;45491;-71
2023/08/08 02:29:26;;;;;;;;;2.00;2.00;;;;;19.55;54.40;101336.09;5036199;28;45407;-71
2023/08/08 02:31:51;;;;;;;;;2.33;2.00;;;;;19.39;54.52;101311.72;5037020;28;45556;-72
2023/08/08 02:34:17;;;;;;;;;4.33;3.00;;;;;19.38;54.67;101308.16;5034444;28;45517;-70
2023/08/08 02:36:42;;;;;;;;;1.00;1.00;;;;;19.51;54.80;101331.78;5051833;28;45572;-71
2023/08/08 02:39:08;;;;;;;;;2.00;2.00;;;;;19.73;54.58;101366.69;5036133;28;45574;-70
2023/08/08 02:41:33;;;;;;;;;3.33;3.00;;;;;19.61;55.21;101341.25;5036857;28;45498;-71
2023/08/08 02:43:59;;;;;;;;;2.67;1.00;;;;;19.67;54.72;101355.28;5036009;28;47586;-72
2023/08/08 02:46:25;;;;;;;;;2.00;2.00;;;;;19.72;55.02;101356.94;5038715;28;45315;-71
2023/08/08 02:48:50;;;;;;;;;3.00;2.00;;;;;19.58;54.68;101346.66;5038288;28;45412;-70
2023/08/08 02:51:16;;;;;;;;;3.00;2.00;;;;;19.40;54.84;101329.41;5037650;28;45534;-72
2023/08/08 02:53:41;;;;;;;;;4.00;3.00;;;;;19.53;54.67;101345.88;5037816;28;46104;-72
2023/08/08 02:56:10;;;;;;;;;3.00;3.00;;;;;19.61;54.65;101358.06;5036827;28;45354;-72
2023/08/08 02:58:35;;;;;;;;;4.00;2.33;;;;;19.56;54.96;101367.94;5037453;28;45462;-72
2023/08/08 03:01:01;;;;;;;;;2.33;2.00;;;;;19.28;55.44;101334.09;5037587;28;45419;-71
2023/08/08 03:03:27;;;;;;;;;6.00;3.00;;;;;19.17;55.17;101316.69;5034033;28;47069;-71
2023/08/08 03:05:53;;;;;;;;;4.00;2.67;;;;;19.38;54.97;101363.94;5036512;28;45808;-72
2023/08/08 03:08:18;;;;;;;;;4.00;2.67;;;;;19.33;55.35;101363.19;5037460;28;45462;-72
2023/08/08 03:10:44;;;;;;;;;3.67;3.33;;;;;19.45;55.38;101385.94;5036766;28;45313;-71
2023/08/08 03:13:10;;;;;;;;;4.67;3.33;;;;;19.10;54.81;101307.13;5036103;28;45561;-72
2023/08/08 03:15:36;;;;;;;;;0.00;0.00;;;;;19.42;55.39;101375.41;5035958;28;45492;-71
2023/08/08 03:18:01;;;;;;;;;3.33;1.67;;;;;19.09;55.50;101316.88;5036589;28;45446;-71
2023/08/08 03:20:31;;;;;;;;;5.33;3.00;;;;;19.14;55.79;101330.91;5036411;28;45306;-71
2023/08/08 03:22:57;;;;;;;;;4.00;2.67;;;;;19.15;55.58;101347.69;5038782;28;46125;-72
2023/08/08 03:25:23;;;;;;;;;5.67;4.00;;;;;18.75;55.81;101263.69;5037684;28;45622;-71
2023/08/08 03:27:48;;;;;;;;;6.00;2.33;;;;;19.30;55.85;101360.63;5039396;28;45458;-70
2023/08/08 03:30:14;;;;;;;;;4.00;2.33;;;;;19.18;55.40;101337.03;5039462;28;45594;-72
2023/08/08 03:32:40;;;;;;;;;2.00;2.00;;;;;19.30;55.44;101344.69;5039162;28;45506;-71
2023/08/08 03:35:06;;;;;;;;;4.33;3.00;;;;;19.48;55.52;101376.13;5034565;28;45341;-72
2023/08/08 03:37:36;;;;;;;;;3.33;3.33;;;;;19.49;55.69;101364.56;5033131;28;46893;-72
2023/08/08 03:40:03;;;;;;;;;3.00;2.00;;;;;19.36;55.98;101367.56;5040862;28;45564;-71
2023/08/08 03:42:28;;;;;;;;;2.00;2.00;;;;;19.33;56.07;101379.13;5039884;28;45964;-72
2023/08/08 03:44:54;;;;;;;;;3.33;3.33;;;;;19.25;56.70;101360.72;5039645;28;45414;-71
2023/08/08 03:47:22;;;;;;;;;3.00;3.00;;;;;18.54;55.58;101242.06;5040085;28;45430;-71
2023/08/08 03:49:47;;;;;;;;;3.00;3.00;;;;;18.90;55.70;101289.03;5054354;28;45527;-71
2023/08/08 03:52:13;;;;;;;;;2.67;2.67;;;;;19.49;55.98;101385.81;5039027;28;46193;-69
2023/08/08 03:54:38;;;;;;;;;3.00;3.00;;;;;19.45;56.56;101377.97;5055429;28;45424;-68
2023/08/08 03:57:04;;;;;;;;;2.33;2.33;;;;;19.34;56.82;101370.28;5040427;28;45481;-68
2023/08/08 03:59:33;;;;;;;;;6.00;4.00;;;;;19.40;56.65;101379.88;5040488;28;45480;-72
2023/08/08 04:01:59;;;;;;;;;3.00;3.00;;;;;19.39;56.59;101392.28;5039992;28;45973;-67
2023/08/08 04:04:25;;;;;;;;;3.33;3.33;;;;;19.28;55.94;101355.34;5039953;28;45572;-68
2023/08/08 04:06:50;;;;;;;;;3.00;2.33;;;;;19.24;56.48;101347.47;5040327;28;45441;-69
2023/08/08 04:09:33;;;;;;;;;3.00;3.00;;;;;19.49;56.93;101398.25;5040308;28;45470;-66
2023/08/08 04:11:59;;;;;;;;;4.00;3.33;;;;;19.17;56.62;101343.22;5038768;28;45457;-66
2023/08/08 04:14:24;;;;;;;;;4.00;4.00;;;;;19.54;56.48;101399.00;5038406;28;45418;-67
2023/08/08 04:16:51;;;;;;;;;2.00;2.00;;;;;19.42;56.75;101378.91;5038588;28;45323;-66
2023/08/08 04:19:16;;;;;;;;;5.00;3.33;;;;;19.32;56.85;101368.56;5039846;28;45342;-69
2023/08/08 04:21:42;;;;;;;;;7.00;4.00;;;;;19.48;56.64;101373.47;5039968;28;46096;-69
2023/08/08 04:24:07;;;;;;;;;2.00;2.00;;;;;19.42;56.82;101376.25;5039243;28;45552;-70
2023/08/08 04:26:34;;;;;;;;;4.00;4.00;;;;;19.30;57.39;101365.94;5037239;28;45896;-69
2023/08/08 04:28:59;;;;;;;;;2.67;2.00;;;;;19.46;57.18;101396.53;5036860;28;45363;-70
2023/08/08 04:31:26;;;;;;;;;5.00;2.33;;;;;19.45;56.91;101381.47;5037690;28;45902;-69
2023/08/08 04:34:00;;;;;;;;;2.67;2.33;;;;;19.48;56.82;101369.91;5035634;28;45754;-70
2023/08/08 04:36:29;;;;;;;;;3.00;2.00;;;;;19.52;56.57;101389.31;5036242;28;45380;-70
2023/08/08 04:38:56;;;;;;;;;2.67;2.67;;;;;19.33;57.33;101376.47;5037189;28;45410;-69
2023/08/08 04:41:21;;;;;;;;;5.00;3.00;;;;;19.25;57.64;101389.09;5036607;28;46339;-68
2023/08/08 04:43:47;;;;;;;;;3.00;3.00;;;;;18.75;57.73;101322.06;5039433;28;45138;-69
2023/08/08 04:46:13;;;;;;;;;4.00;2.00;;;;;19.04;57.98;101367.41;5037500;28;45385;-68
2023/08/08 04:48:39;;;;;;;;;3.00;3.00;;;;;19.10;58.27;101389.41;5036370;28;45489;-70
2023/08/08 04:51:05;;;;;;;;;4.00;4.00;;;;;19.19;58.25;101405.16;5036084;28;46576;-70
2023/08/08 04:53:31;;;;;;;;;4.00;3.00;;;;;19.05;58.64;101385.13;5038276;28;45782;-70
2023/08/08 04:55:57;;;;;;;;;3.67;3.67;;;;;19.00;58.47;101376.34;5037635;28;45422;-69
2023/08/08 04:58:23;;;;;;;;;3.00;3.00;;;;;19.10;58.81;101392.06;5035695;28;45414;-69
2023/08/08 05:00:52;;;;;;;;;6.00;4.33;;;;;19.03;58.62;101378.97;5038212;28;45984;-70
2023/08/08 05:03:24;;;;;;;;;4.00;2.33;;;;;19.20;58.03;101390.97;5037406;28;45528;-69
2023/08/08 05:05:50;;;;;;;;;4.67;4.33;;;;;19.21;58.53;101390.91;5034562;28;45603;-68
2023/08/08 05:08:16;;;;;;;;;2.67;2.00;;;;;19.26;58.28;101393.47;5022808;28;45569;-69
2023/08/08 05:10:42;;;;;;;;;3.00;3.00;;;;;18.95;57.69;101327.81;5036195;28;46158;-69
2023/08/08 05:13:09;;;;;;;;;3.33;3.00;;;;;19.31;57.71;101377.44;5054823;28;45647;-68
2023/08/08 05:15:52;;;;;;;;;4.00;3.33;;;;;19.45;57.76;101392.09;5038801;28;45484;-69
2023/08/08 05:18:19;;;;;;;;;2.67;2.00;;;;;19.51;57.60;101387.59;5038578;28;45573;-70
2023/08/08 05:20:44;;;;;;;;;6.33;4.00;;;;;19.42;57.08;101359.44;5037335;28;46215;-70
2023/08/08 05:23:10;;;;;;;;;5.33;4.00;;;;;19.50;56.93;101365.44;5037639;28;45358;-70
2023/08/08 05:25:42;;;;;;;;;4.33;3.33;;;;;19.64;56.83;101381.03;5038278;28;45792;-69
2023/08/08 05:28:07;;;;;;;;;4.33;4.33;;;;;19.62;56.53;101373.13;5027606;28;45376;-69
2023/08/08 05:30:34;;;;;;;;;4.33;3.67;;;;;19.78;56.63;101394.00;5038264;28;45280;-70
2023/08/08 05:32:59;;;;;;;;;6.00;4.67;;;;;19.80;56.46;101378.91;5036991;28;45567;-69
2023/08/08 05:35:25;;;;;;;;;6.00;4.33;;;;;19.74;56.29;101369.28;5037386;28;45435;-68
2023/08/08 05:37:51;;;;;;;;;5.00;4.67;;;;;19.88;56.33;101382.22;5038721;28;45441;-69
2023/08/08 05:40:16;;;;;;;;;6.33;6.00;;;;;19.87;56.35;101365.41;5038571;28;46098;-69
2023/08/08 05:42:42;;;;;;;;;4.67;4.00;;;;;20.03;55.85;101384.47;5037317;28;45441;-69
2023/08/08 05:45:08;;;;;;;;;4.00;4.00;;;;;19.92;55.88;101368.81;5035724;28;45461;-69
2023/08/08 05:47:34;;;;;;;;;4.67;4.67;;;;;19.96;56.06;101371.41;5038585;28;45418;-68
2023/08/08 05:49:59;;;;;;;;;5.00;3.33;;;;;20.01;55.54;101375.66;5036698;28;45548;-69
2023/08/08 05:52:25;;;;;;;;;4.33;4.00;;;;;20.05;55.70;101382.66;5037637;28;45403;-69
2023/08/08 05:54:51;;;;;;;;;5.67;5.67;;;;;20.15;55.69;101393.03;5053489;28;45522;-69
2023/08/08 05:57:16;;;;;;;;;4.33;4.00;;;;;20.06;55.73;101384.38;5037444;28;45544;-70
2023/08/08 05:59:44;;;;;;;;;5.00;4.00;;;;;19.88;56.12;101364.50;5037171;28;46161;-69
2023/08/08 06:02:10;;;;;;;;;5.00;4.00;;;;;19.96;55.80;101371.41;5039240;28;45339;-69
2023/08/08 06:04:36;;;;;;;;;5.00;4.00;;;;;19.96;55.64;101372.25;5039133;28;45328;-70
2023/08/08 06:07:02;;;;;;;;;9.00;5.00;;;;;20.22;55.54;101395.47;5038390;28;45345;-71
2023/08/08 06:09:28;;;;;;;;;4.67;3.00;;;;;20.15;55.81;101380.63;5052720;28;46618;-69
2023/08/08 06:11:53;;;;;;;;;5.67;4.00;;;;;20.15;55.51;101375.28;5036647;28;46125;-70
2023/08/08 06:14:19;;;;;;;;;4.33;4.00;;;;;20.38;55.50;101403.03;5036725;28;45540;-69
2023/08/08 06:16:48;;;;;;;;;5.00;4.33;;;;;20.39;54.84;101378.19;5036697;28;45980;-70
2023/08/08 06:19:15;;;;;;;;;6.00;5.00;;;;;20.48;54.74;101376.13;5036866;28;45703;-70
2023/08/08 06:21:41;;;;;;;;;4.67;3.67;;;;;20.70;54.72;101415.44;5036848;28;45454;-69
2023/08/08 06:24:07;;;;;;;;;6.00;4.67;;;;;20.82;53.94;101406.22;5036470;28;45528;-69
2023/08/08 06:26:33;;;;;;;;;4.33;4.33;;;;;20.69;54.13;101365.78;5036909;28;45352;-71
2023/08/08 06:28:58;;;;;;;;;4.67;4.00;;;;;20.97;53.97;101413.75;5036228;28;45839;-69
2023/08/08 06:31:24;;;;;;;;;4.00;4.00;;;;;20.90;53.79;101393.53;5036550;28;45782;-70
2023/08/08 06:33:50;;;;;;;;;6.00;4.00;;;;;20.73;53.84;101348.81;5036098;28;45612;-69
2023/08/08 06:36:15;;;;;;;;;4.67;4.67;;;;;21.14;53.79;101415.88;5038182;28;45455;-69
2023/08/08 06:38:42;;;;;;;;;2.33;2.33;;;;;21.20;53.31;101415.69;5037872;28;46017;-68
2023/08/08 06:41:08;;;;;;;;;5.33;4.00;;;;;21.24;53.21;101405.84;5038058;28;45347;-71
2023/08/08 06:43:33;;;;;;;;;2.00;2.00;;;;;21.30;52.47;101421.59;5036860;28;45409;-70
2023/08/08 06:46:00;;;;;;;;;4.00;3.00;;;;;21.38;52.01;101412.47;5052330;28;45545;-71
2023/08/08 06:48:26;;;;;;;;;3.33;2.67;;;;;21.32;51.48;101378.00;5036045;28;46124;-71
2023/08/08 06:50:52;;;;;;;;;4.00;3.00;;;;;21.58;50.51;101405.63;5051586;28;45489;-70
2023/08/08 06:53:18;;;;;;;;;2.00;2.00;;;;;21.63;50.13;101393.00;5036242;28;45470;-69
2023/08/08 06:55:43;;;;;;;;;2.33;2.33;;;;;21.74;49.27;101396.19;5038083;28;45351;-70
2023/08/08 06:58:09;;;;;;;;;4.33;2.67;;;;;21.76;48.82;101401.50;5039291;28;45481;-69
2023/08/08 07:00:35;;;;;;;;;0.67;0.67;;;;;21.71;48.31;101390.06;5040113;28;45458;-69
2023/08/08 07:03:01;;;;;;;;;3.00;1.67;;;;;21.64;48.62;101389.44;5041264;28;45524;-69
2023/08/08 07:05:26;;;;;;;;;2.00;2.00;;;;;21.58;48.62;101389.63;5040071;28;45502;-69
2023/08/08 07:07:52;;;;;;;;;1.67;1.00;;;;;21.60;48.45;101394.00;5040577;28;45527;-70
2023/08/08 07:10:19;;;;;;;;;1.00;1.00;;;;;21.47;48.18;101381.97;5037279;28;45418;-69
2023/08/08 07:12:48;;;;;;;;;2.00;2.00;;;;;21.57;48.54;101404.75;5039166;28;45540;-69
2023/08/08 07:15:14;;;;;;;;;2.00;2.00;;;;;21.56;48.33;101400.34;5039649;28;46544;-68
2023/08/08 07:17:44;;;;;;;;;2.67;2.00;;;;;21.58;47.82;101394.97;5039847;28;46248;-70
2023/08/08 07:20:13;;;;;;;;;2.00;2.00;;;;;21.57;47.91;101394.09;5041095;28;45358;-70
2023/08/08 07:22:39;;;;;;;;;1.33;1.00;;;;;21.60;46.90;101395.78;5050172;28;45292;-69
2023/08/08 07:25:05;;;;;;;;;1.00;1.00;;;;;21.62;47.13;101396.63;5037896;28;45820;-69
2023/08/08 07:27:31;;;;;;;;;2.00;1.00;;;;;21.59;46.71;101388.69;5029617;28;47104;-69
2023/08/08 07:29:56;;;;;;;;;1.33;1.00;;;;;21.52;46.75;101369.41;5040439;28;45181;-69
2023/08/08 07:32:22;;;;;;;;;1.67;1.67;;;;;21.63;46.30;101389.47;5039352;28;45444;-69
2023/08/08 07:34:50;;;;;;;;;1.33;1.33;;;;;21.30;46.99;101325.69;5039462;28;46843;-69
2023/08/08 07:37:16;;;;;;;;;1.00;1.00;;;;;21.66;46.42;101381.38;5039420;28;45749;-69
2023/08/08 07:39:41;;;;;;;;;3.00;1.00;;;;;21.48;46.45;101341.09;5038993;28;46135;-70
2023/08/08 07:42:07;;;;;;;;;2.00;1.33;;;;;21.52;46.66;101353.41;5054651;28;45536;-66
2023/08/08 07:44:34;;;;;;;;;2.00;2.00;;;;;21.68;46.99;101383.06;5039121;28;45435;-67
2023/08/08 07:47:07;;;;;;;;;3.00;2.00;;;;;21.52;47.71;101344.53;5038903;28;45494;-67
2023/08/08 07:49:32;;;;;;;;;2.00;2.00;;;;;21.76;47.71;101382.81;5039174;28;45465;-66
2023/08/08 07:51:58;;;;;;;;;2.33;2.33;;;;;21.93;46.87;101369.75;5038908;28;45722;-65
2023/08/08 07:54:23;;;;;;;;;2.67;2.33;;;;;21.89;47.67;101340.59;5039444;28;45516;-66
2023/08/08 07:56:49;;;;;;;;;3.00;3.00;;;;;22.23;47.88;101381.16;5040047;28;45451;-67
2023/08/08 07:59:14;;;;;;;;;5.00;3.00;;;;;22.38;46.70;101384.22;5040220;28;45371;-67
2023/08/08 08:01:40;;;;;;;;;3.33;3.33;;;;;22.50;46.14;101381.06;5040275;28;45322;-66
2023/08/08 08:04:06;;;;;;;;;5.67;4.00;;;;;22.69;45.04;101369.69;5040191;28;45476;-67
2023/08/08 08:06:31;;;;;;;;;2.00;2.00;;;;;22.73;45.01;101366.84;5040029;28;46145;-72
2023/08/08 08:08:57;;;;;;;;;3.67;3.67;;;;;22.62;43.92;101369.94;5038486;28;45382;-71
2023/08/08 08:11:22;;;;;;;;;4.00;2.00;;;;;22.66;43.81;101373.38;5040239;28;45319;-71
2023/08/08 08:13:51;;;;;;;;;2.00;2.00;;;;;22.78;43.59;101370.22;5038819;28;45543;-73
2023/08/08 08:16:18;;;;;;;;;1.67;1.00;;;;;22.92;43.20;101368.78;5037190;28;45838;-73
2023/08/08 08:18:43;;;;;;;;;2.00;2.00;;;;;22.96;42.89;101376.63;5038254;28;45487;-73
2023/08/08 08:21:09;;;;;;;;;1.50;1.50;;;;;22.91;42.46;101375.94;5053973;28;45481;-75
2023/08/08 08:23:35;;;;;;;;;2.00;2.00;;;;;22.87;43.27;101368.97;5038540;28;45450;-73
2023/08/08 08:26:00;;;;;;;;;3.33;2.33;;;;;22.67;42.98;101329.69;5036565;28;46516;-72
2023/08/08 08:28:26;;;;;;;;;2.00;2.00;;;;;23.04;43.39;101374.56;5032472;28;45454;-73
2023/08/08 08:30:53;;;;;;;;;4.00;2.00;;;;;22.94;42.85;101348.22;5036752;28;45520;-69
2023/08/08 08:33:19;;;;;;;;;1.50;1.50;;;;;23.10;43.90;101369.91;5038682;28;45470;-69
2023/08/08 08:35:45;;;;;;;;;2.00;2.00;;;;;22.98;42.57;101345.41;5053410;28;48205;-67
2023/08/08 08:38:11;;;;;;;;;2.00;1.00;;;;;23.11;43.14;101355.59;5038080;28;45603;-72
2023/08/08 08:40:39;;;;;;;;;2.00;2.00;;;;;23.03;43.26;101339.88;5038441;28;45428;-73
2023/08/08 08:43:06;;;;;;;;;2.00;1.25;;;;;22.80;42.07;101292.69;5038321;28;45426;-72
2023/08/08 08:45:37;;;;;;;;;2.00;1.50;;;;;23.20;42.16;101364.09;5037896;28;45546;-72
2023/08/08 08:48:04;;;;;;;;;1.00;1.00;;;;;22.37;41.86;101238.34;5038007;28;45493;-74
2023/08/08 08:50:33;;;;;;;;;1.75;1.75;;;;;23.02;41.89;101355.06;5036607;28;45606;-71
2023/08/08 08:53:01;;;;;;;;;2.00;1.25;;;;;22.77;41.94;101323.06;5037848;28;45526;-72
2023/08/08 08:55:27;;;;;;;;;3.50;1.00;;;;;22.98;42.39;101371.22;5037714;28;45576;-71
2023/08/08 08:57:54;;;;;;;;;2.00;2.00;;;;;22.47;41.71;101276.22;5038136;28;45450;-71
2023/08/08 09:00:20;;;;;;;;;1.00;1.00;;;;;22.37;41.45;101279.22;5037917;28;45480;-74
2023/08/08 09:02:46;;;;;;;;;1.50;1.50;;;;;22.93;41.72;101349.19;5038287;28;45198;-76
2023/08/08 09:05:14;;;;;;;;;1.00;1.00;;;;;23.15;41.86;101349.19;5038520;28;45457;-74
2023/08/08 09:07:43;;;;;;;;;2.00;2.00;;;;;23.28;41.63;101359.34;5026908;28;45473;-77
2023/08/08 09:10:09;;;;;;;;;3.00;1.00;;;;;22.95;41.57;101297.44;5038269;28;46211;-74
2023/08/08 09:12:36;;;;;;;;;1.75;1.75;;;;;22.86;41.70;101279.97;5037450;28;45496;-73
2023/08/08 09:15:04;;;;;;;;;2.00;2.00;;;;;22.95;40.76;101312.59;5031984;28;45256;-73
2023/08/08 09:17:30;;;;;;;;;2.00;2.00;;;;;23.18;41.44;101374.00;5040583;28;45362;-73
2023/08/08 09:19:58;;;;;;;;;2.75;2.00;;;;;23.25;41.60;101361.25;5039250;28;45432;-74
2023/08/08 09:22:23;;;;;;;;;1.00;1.00;;;;;23.21;41.71;101363.19;5037510;28;45731;-74
2023/08/08 09:24:49;;;;;;;;;1.00;1.00;;;;;23.16;41.38;101353.59;5036750;28;45401;-74
2023/08/08 09:27:16;;;;;;;;;1.00;1.00;;;;;22.78;41.59;101298.13;5037170;28;45347;-74
2023/08/08 09:29:42;;;;;;;;;1.50;1.00;;;;;22.73;41.27;101277.84;5037323;28;45339;-74
2023/08/08 09:32:08;;;;;;;;;1.50;1.00;;;;;23.26;41.69;101341.63;5038054;28;45458;-75
2023/08/08 09:34:34;;;;;;;;;3.50;2.00;;;;;23.33;41.29;101336.91;5036711;28;45360;-73
2023/08/08 09:37:00;;;;;;;;;2.00;2.00;;;;;23.48;41.41;101361.16;5036085;28;45439;-74
2023/08/08 09:39:27;;;;;;;;;2.25;2.25;;;;;23.21;41.71;101298.19;5037138;28;45392;-74
2023/08/08 09:41:56;;;;;;;;;1.00;1.00;;;;;23.37;43.37;101317.09;5037376;28;45422;-69
2023/08/08 09:44:29;;;;;;;;;0.75;0.75;;;;;23.57;43.24;101335.00;5037015;28;46613;-69
2023/08/08 09:46:55;;;;;;;;;2.25;2.00;;;;;23.59;43.10;101335.81;5031263;28;45394;-70
2023/08/08 09:49:22;;;;;;;;;1.50;1.00;;;;;23.58;42.75;101323.34;5038334;28;45473;-69
2023/08/08 09:51:49;;;;;;;;;1.00;1.00;;;;;23.58;43.36;101324.22;5035881;28;45473;-68
2023/08/08 09:54:22;;;;;;;;;1.75;1.75;;;;;23.64;43.34;101321.28;5036624;28;46258;-69
2023/08/08 09:56:50;;;;;;;;;1.00;1.00;;;;;23.56;42.44;101326.06;5036652;28;45296;-68
2023/08/08 09:59:18;;;;;;;;;2.00;2.00;;;;;23.15;42.52;101250.34;5037174;28;45543;-72
2023/08/08 10:01:46;;;;;;;;;2.50;2.50;;;;;23.13;42.57;101269.09;5035820;28;45559;-70
2023/08/08 10:04:12;;;;;;;;;3.25;1.00;;;;;23.03;42.43;101233.03;5038160;28;45528;-70
2023/08/08 10:06:38;;;;;;;;;3.00;1.00;;;;;23.64;43.22;101315.06;5037846;28;45341;-67
2023/08/08 10:09:04;;;;;;;;;2.00;2.00;;;;;23.57;43.34;101286.84;5036213;28;45399;-67
2023/08/08 10:11:32;;;;;;;;;2.25;1.25;;;;;23.84;43.14;101319.56;5036874;28;45457;-67
2023/08/08 10:14:01;;;;;;;;;2.75;2.00;;;;;23.79;42.60;101309.06;5036558;28;46596;-70
2023/08/08 10:16:27;;;;;;;;;3.50;3.00;;;;;23.84;43.09;101317.75;5036727;28;46147;-70
2023/08/08 10:18:58;;;;;;;;;2.25;2.00;;;;;23.98;42.24;101305.59;5037965;28;45358;-69
2023/08/08 10:21:25;;;;;;;;;6.00;2.75;;;;;23.96;42.61;101292.25;5024051;28;45527;-73
2023/08/08 10:24:04;;;;;;;;;1.00;1.00;;;;;24.00;42.81;101288.53;5034673;28;46228;-72
2023/08/08 10:26:30;;;;;;;;;3.50;2.00;;;;;23.94;43.01;101266.53;5033961;28;45585;-71
2023/08/08 10:28:57;;;;;;;;;3.50;2.00;;;;;24.26;42.25;101292.69;5031518;28;45574;-76
2023/08/08 10:31:23;;;;;;;;;2.75;2.75;;;;;24.23;42.04;101273.22;5033454;28;45750;-74
2023/08/08 10:33:49;;;;;;;;;7.00;3.75;;;;;24.23;42.01;101259.84;5034974;28;45524;-73
2023/08/08 10:36:15;;;;;;;;;3.50;2.00;;;;;24.52;41.55;101310.22;5030781;28;46361;-71
2023/08/08 10:38:50;;;;;;;;;5.25;5.00;;;;;24.27;41.37;101237.31;5034778;28;45414;-72
2023/08/08 10:41:17;;;;;;;;;4.00;4.00;;;;;24.53;41.67;101273.59;5047738;28;45647;-71
2023/08/08 10:43:54;;;;;;;;;3.00;3.00;;;;;24.69;42.53;101295.16;5030132;28;46649;-71
2023/08/08 10:46:30;;;;;;;;;5.00;3.00;;;;;24.78;42.70;101308.13;5034028;28;46476;-70
2023/08/08 10:48:59;;;;;;;;;4.25;3.75;;;;;24.91;42.92;101303.03;5035146;28;45469;-70
2023/08/08 10:51:44;;;;;;;;;4.00;4.00;;;;;25.01;42.45;101290.94;5034233;28;45860;-71
2023/08/08 10:54:14;;;;;;;;;3.00;3.00;;;;;25.12;42.68;101291.22;5033851;28;46415;-70
2023/08/08 10:56:41;;;;;;;;;4.25;3.50;;;;;25.30;41.86;101284.13;5032935;28;45437;-70
2023/08/08 10:59:37;;;;;;;;;2.25;2.25;;;;;25.26;40.86;101282.53;5033983;28;45396;-73
2023/08/08 11:02:04;;;;;;;;;2.00;2.00;;;;;25.20;41.10;101257.84;5029823;28;45599;-73
2023/08/08 11:04:34;;;;;;;;;4.00;2.50;;;;;25.47;40.81;101290.44;5034786;28;46483;-73
2023/08/08 11:07:01;;;;;;;;;3.00;3.00;;;;;25.38;39.38;101230.97;5031796;28;45874;-73
2023/08/08 11:09:26;;;;;;;;;4.00;2.25;;;;;25.38;38.96;101256.91;5034004;28;45500;-75
2023/08/08 11:11:53;;;;;;;;;6.00;3.50;;;;;25.20;39.46;101234.63;5034065;28;45450;-71
2023/08/08 11:14:22;;;;;;;;;1.00;1.00;;;;;25.35;39.95;101275.84;5032435;28;46220;-69
2023/08/08 11:16:50;;;;;;;;;3.50;3.25;;;;;25.29;40.21;101278.81;5033218;28;45337;-70
2023/08/08 11:19:20;;;;;;;;;5.00;2.00;;;;;24.98;40.32;101243.69;5035091;28;45559;-74
2023/08/08 11:21:48;;;;;;;;;3.00;3.00;;;;;25.13;40.65;101270.69;5032436;28;45904;-75
2023/08/08 11:24:14;;;;;;;;;4.00;3.50;;;;;25.11;41.16;101272.56;5032330;28;46736;-75
2023/08/08 11:26:47;;;;;;;;;2.50;2.50;;;;;24.75;40.79;101242.16;5027272;28;45439;-75